createdAt,value
2018-07-12T00:07:34.800Z,15.51
2018-07-12T00:17:20.435Z,15.42
2018-07-12T00:27:18.286Z,15.42
2018-07-12T00:37:16.972Z,15.30
2018-07-12T00:47:14.094Z,15.27
2018-07-12T00:57:10.140Z,15.34
2018-07-12T01:07:04.004Z,15.39
2018-07-12T01:16:59.909Z,15.27
2018-07-12T01:26:54.392Z,15.21
2018-07-12T01:36:50.447Z,15.34
2018-07-12T01:46:46.760Z,15.10
2018-07-12T01:56:43.509Z,15.03
2018-07-12T02:06:40.051Z,15.05
2018-07-12T02:16:38.517Z,15.20
2018-07-12T02:26:34.066Z,15.08
2018-07-12T02:36:31.840Z,15.10
2018-07-12T02:46:30.969Z,15.06
2018-07-12T02:56:29.639Z,15.12
2018-07-12T03:06:27.799Z,14.91
2018-07-12T03:16:22.927Z,14.87
2018-07-12T03:26:21.584Z,14.84
2018-07-12T03:36:19.667Z,14.97
2018-07-12T03:46:17.221Z,15.02
2018-07-12T03:56:15.827Z,14.94
2018-07-12T04:06:14.161Z,15.05
2018-07-12T04:16:04.303Z,15.24
2018-07-12T04:26:02.526Z,15.30
2018-07-12T04:35:58.092Z,15.41
2018-07-12T04:45:56.876Z,15.71
2018-07-12T04:55:51.227Z,15.85
2018-07-12T05:05:45.634Z,16.08
2018-07-12T05:15:44.194Z,16.16
2018-07-12T05:25:42.865Z,16.41
2018-07-12T05:35:40.047Z,16.59
2018-07-12T05:45:37.924Z,16.99
2018-07-12T05:55:36.112Z,17.23
2018-07-12T06:05:32.652Z,17.30
2018-07-12T06:15:30.816Z,17.20
2018-07-12T06:25:29.202Z,17.18
2018-07-12T06:35:22.582Z,17.29
2018-07-12T06:45:21.933Z,17.53
2018-07-12T06:55:20.842Z,17.87
2018-07-12T07:05:16.582Z,18.24
2018-07-12T07:15:00.757Z,18.69
2018-07-12T07:24:58.863Z,18.68
2018-07-12T07:34:55.735Z,19.21
2018-07-12T07:44:53.827Z,19.28
2018-07-12T07:54:53.148Z,19.55
2018-07-12T08:04:51.241Z,19.83
2018-07-12T08:14:48.829Z,19.91
2018-07-12T08:24:44.261Z,20.16
2018-07-12T08:34:44.331Z,21.05
2018-07-12T08:44:42.515Z,20.96
2018-07-12T08:54:40.391Z,21.41
2018-07-12T09:04:35.928Z,20.43
2018-07-12T09:14:32.140Z,21.12
2018-07-12T09:24:31.879Z,21.20
2018-07-12T09:34:30.439Z,21.23
2018-07-12T09:44:28.193Z,21.54
2018-07-12T09:54:22.834Z,21.84
2018-07-12T10:04:03.909Z,21.94
2018-07-12T10:13:54.980Z,21.94
2018-07-12T10:23:45.322Z,22.46
2018-07-12T10:33:42.631Z,22.00
2018-07-12T10:43:40.689Z,22.71
2018-07-12T10:53:28.261Z,22.62
2018-07-12T11:03:27.398Z,22.97
2018-07-12T11:13:23.826Z,24.04
2018-07-12T11:23:21.166Z,24.47
2018-07-12T11:33:19.649Z,24.53
2018-07-12T11:43:15.419Z,25.93
2018-07-12T11:53:12.980Z,27.23
2018-07-12T12:03:11.625Z,26.30
2018-07-12T12:13:08.397Z,27.27
2018-07-12T12:23:08.031Z,27.84
2018-07-12T12:33:04.459Z,27.19
2018-07-12T12:42:44.858Z,28.26
2018-07-12T12:52:22.807Z,28.11
2018-07-12T13:02:16.926Z,26.72
2018-07-12T13:12:13.217Z,26.25
2018-07-12T13:22:10.784Z,29.23
2018-07-12T13:32:07.642Z,26.87
2018-07-12T13:41:47.511Z,29.46
2018-07-12T13:51:43.234Z,26.21
2018-07-12T14:01:41.079Z,27.74
2018-07-12T14:11:43.729Z,29.78
2018-07-12T14:21:22.622Z,30.34
2018-07-12T14:31:02.336Z,31.27
2018-07-12T14:40:59.446Z,28.39
2018-07-12T14:50:57.341Z,29.48
2018-07-12T15:00:40.206Z,29.18
2018-07-12T15:10:29.535Z,27.89
2018-07-12T15:20:16.167Z,27.53
2018-07-12T15:30:10.909Z,26.42
2018-07-12T15:40:10.560Z,27.46
2018-07-12T15:49:52.821Z,26.87
2018-07-12T15:59:47.130Z,25.49
2018-07-12T16:09:40.512Z,25.23
2018-07-12T16:19:36.673Z,24.75
2018-07-12T16:29:31.663Z,24.82
2018-07-12T16:39:29.644Z,24.54
2018-07-12T16:49:26.133Z,24.12
2018-07-12T16:59:20.095Z,23.93
2018-07-12T17:09:18.365Z,23.31
2018-07-12T17:19:15.275Z,23.75
2018-07-12T17:29:12.615Z,22.96
2018-07-12T17:39:10.287Z,22.46
2018-07-12T17:49:01.903Z,22.15
2018-07-12T17:58:59.150Z,21.76
2018-07-12T18:08:48.889Z,21.51
2018-07-12T18:18:33.169Z,21.24
2018-07-12T18:28:29.387Z,20.86
2018-07-12T18:38:21.450Z,20.54
2018-07-12T18:48:12.281Z,20.27
2018-07-12T18:58:08.861Z,20.09
2018-07-12T19:08:04.270Z,19.82
2018-07-12T19:17:59.545Z,19.54
2018-07-12T19:27:40.702Z,19.27
2018-07-12T19:37:31.742Z,19.17
2018-07-12T19:47:28.861Z,18.83
2018-07-12T19:57:23.765Z,18.64
2018-07-12T20:07:14.425Z,18.42
2018-07-12T20:17:06.117Z,18.34
2018-07-12T20:26:58.849Z,18.25
2018-07-12T20:36:55.786Z,17.96
2018-07-12T20:46:48.878Z,17.79
2018-07-12T20:56:45.691Z,17.57
2018-07-12T21:06:41.119Z,17.53
2018-07-12T21:16:38.123Z,17.48
2018-07-12T21:26:33.665Z,17.33
2018-07-12T21:36:22.068Z,17.28
2018-07-12T21:46:15.305Z,17.15
2018-07-12T21:56:10.271Z,16.99
2018-07-12T22:06:07.604Z,16.84
2018-07-12T22:16:02.751Z,16.77
2018-07-12T22:25:56.207Z,16.82
2018-07-12T22:35:49.183Z,16.74
2018-07-12T22:45:43.441Z,16.67
2018-07-12T22:55:36.140Z,16.62
2018-07-12T23:05:31.065Z,16.52
2018-07-12T23:15:27.313Z,16.37
2018-07-12T23:25:19.413Z,16.16
2018-07-12T23:35:14.951Z,16.00
2018-07-12T23:45:08.018Z,15.99
2018-07-12T23:55:02.892Z,15.94
